Ana Sayfa
METAR-TAF:

METAR-TAF

Havaalanları :

Hamilton, Teksas, Amerika Birleşik Devletleri

Enlem: 31-39-57N, Boylam: 098-08-55W, yükseklik: 396 m

Güncel hava durumu gözlemi

Rapor saat 14:55 UTC de 1 saat ve 3 dakika önce yapıldı.
Rüzgar kuzey/kuzeydoğudan 5 kt
Sıcaklık 6°C
Nem 75%
Basınç 1025 hPa
Görüş mesafesi: 16.1 km
4500 ft yükseklikte parçalı bulutlu
5000 ft yükseklikte parçalı çok bulutlu
8000 ft yükseklikte çok bulutlu

METAR: KMNZ 141455Z AUTO 03005KT 10SM SCT045 BKN050 OVC080 06/02 A3027 RMK AO2 T00550017

Saat: 08:58 (15:58 UTC)


TAF: eksik

4.000'den fazla havaalanı için hava durumu gözlemleri ve tahminleri (METAR ve TAF raporları).

Kullanılabilir istasyonlar harita üzerinde sarı ve kırmızı noktalarla gösterilir.

İstasyonun adını görmek için fareyi noktanın üzerinde gezdirin.

Sonrasında hava gözlem ve tahminlerini görmek için tıklayın.

Haritayı değiştirmek için: yaklaştırmak için siyah artı işaretli yeşil düğmeye ve uzaklaştırmak için de eksi işaretli düğmeye hızla tıklayın; bitişik haritalar için yeşil okları kullanın.


METAR-TAF: